createdAt,value
2018-03-20T00:02:24.844Z,100666.77
2018-03-20T00:04:50.941Z,100669.19
2018-03-20T00:07:17.067Z,100671.25
2018-03-20T00:09:43.135Z,100674.11
2018-03-20T00:12:09.213Z,100680.86
2018-03-20T00:14:35.355Z,100676.19
2018-03-20T00:17:01.483Z,100676.14
2018-03-20T00:19:27.554Z,100675.30
2018-03-20T00:21:53.615Z,100667.30
2018-03-20T00:24:19.637Z,100667.83
2018-03-20T00:26:45.672Z,100673.88
2018-03-20T00:29:11.706Z,100668.75
2018-03-20T00:31:37.773Z,100671.11
2018-03-20T00:34:03.810Z,100665.19
2018-03-20T00:36:29.883Z,100658.73
2018-03-20T00:38:55.950Z,100651.36
2018-03-20T00:41:22.036Z,100645.66
2018-03-20T00:46:41.328Z,100640.37
2018-03-20T00:49:07.653Z,100636.78
2018-03-20T00:51:33.738Z,100644.03
2018-03-20T00:54:00.171Z,100657.69
2018-03-20T00:56:26.243Z,100646.47
2018-03-20T00:58:52.263Z,100653.47
2018-03-20T01:01:18.394Z,100659.04
2018-03-20T01:03:44.477Z,100658.59
2018-03-20T01:06:10.547Z,100662.09
2018-03-20T01:08:36.637Z,100651.97
2018-03-20T01:11:02.758Z,100659.31
2018-03-20T01:13:28.795Z,100665.08
2018-03-20T01:15:54.858Z,100662.52
2018-03-20T01:18:20.887Z,100660.47
2018-03-20T01:20:46.993Z,100657.16
2018-03-20T01:23:13.055Z,100652.16
2018-03-20T01:25:39.166Z,100647.55
2018-03-20T01:28:20.138Z,100635.28
2018-03-20T01:30:46.159Z,100636.69
2018-03-20T01:33:12.200Z,100622.05
2018-03-20T01:35:38.219Z,100622.53
2018-03-20T01:38:04.480Z,100613.91
2018-03-20T01:40:30.524Z,100609.54
2018-03-20T01:42:56.589Z,100599.70
2018-03-20T01:45:22.715Z,100595.94
2018-03-20T01:47:48.738Z,100595.13
2018-03-20T01:50:14.824Z,100594.66
2018-03-20T01:52:40.859Z,100576.47
2018-03-20T01:55:06.915Z,100563.38
2018-03-20T01:57:32.958Z,100563.16
2018-03-20T01:59:59.032Z,100558.49
2018-03-20T02:02:25.105Z,100543.11
2018-03-20T02:04:51.131Z,100550.23
2018-03-20T02:07:17.316Z,100547.32
2018-03-20T02:09:43.468Z,100558.70
2018-03-20T02:12:09.548Z,100560.86
2018-03-20T02:14:35.724Z,100556.23
2018-03-20T02:17:01.844Z,100550.30
2018-03-20T02:19:27.882Z,100535.82
2018-03-20T02:21:54.001Z,100538.86
2018-03-20T02:24:20.043Z,100544.07
2018-03-20T02:26:46.087Z,100538.08
2018-03-20T02:29:12.106Z,100536.67
2018-03-20T02:31:38.187Z,100547.83
2018-03-20T02:34:04.231Z,100538.63
2018-03-20T02:36:30.298Z,100531.15
2018-03-20T02:38:56.369Z,100525.63
2018-03-20T02:41:22.435Z,100525.79
2018-03-20T02:43:48.509Z,100520.58
2018-03-20T02:46:19.378Z,100520.70
2018-03-20T02:48:45.433Z,100502.79
2018-03-20T02:51:11.563Z,100499.84
2018-03-20T02:53:37.795Z,100495.13
2018-03-20T02:56:03.817Z,100492.12
2018-03-20T02:58:29.866Z,100487.80
2018-03-20T03:00:55.934Z,100482.59
2018-03-20T03:03:21.962Z,100479.45
2018-03-20T03:05:48.019Z,100478.64
2018-03-20T03:08:14.057Z,100479.05
2018-03-20T03:10:40.119Z,100486.97
2018-03-20T03:13:06.242Z,100494.25
2018-03-20T03:15:32.656Z,100488.64
2018-03-20T03:17:58.774Z,100490.27
2018-03-20T03:20:24.831Z,100489.08
2018-03-20T03:22:50.843Z,100491.27
2018-03-20T03:25:17.725Z,100492.47
2018-03-20T03:27:43.875Z,100491.50
2018-03-20T03:30:09.957Z,100483.28
2018-03-20T03:32:36.048Z,100500.31
2018-03-20T03:35:02.125Z,100494.39
2018-03-20T03:37:28.230Z,100499.00
2018-03-20T03:39:54.281Z,100503.61
2018-03-20T03:42:20.326Z,100498.50
2018-03-20T03:44:46.416Z,100505.09
2018-03-20T03:47:12.647Z,100499.53
2018-03-20T03:49:38.700Z,100500.79
2018-03-20T03:52:04.737Z,100495.70
2018-03-20T03:54:30.787Z,100499.75
2018-03-20T03:56:56.829Z,100511.39
2018-03-20T03:59:23.036Z,100501.92
2018-03-20T04:01:49.104Z,100493.95
2018-03-20T04:04:15.121Z,100499.22
2018-03-20T04:06:41.169Z,100495.42
2018-03-20T04:09:08.261Z,100495.36
2018-03-20T04:11:34.305Z,100500.35
2018-03-20T04:14:00.366Z,100500.34
2018-03-20T04:16:26.516Z,100501.54
2018-03-20T04:18:52.595Z,100499.81
2018-03-20T04:21:18.638Z,100494.45
2018-03-20T04:23:44.725Z,100488.78
2018-03-20T04:26:10.771Z,100484.48
2018-03-20T04:28:36.877Z,100479.27
2018-03-20T04:31:02.928Z,100487.68
2018-03-20T04:33:28.990Z,100479.33
2018-03-20T04:35:55.112Z,100484.73
2018-03-20T04:38:21.147Z,100489.41
2018-03-20T04:40:47.359Z,100484.09
2018-03-20T04:43:13.418Z,100482.72
2018-03-20T04:45:39.455Z,100487.64
2018-03-20T04:48:05.526Z,100490.52
2018-03-20T04:50:31.577Z,100482.69
2018-03-20T04:52:57.668Z,100487.72
2018-03-20T04:55:23.682Z,100488.00
2018-03-20T04:57:49.756Z,100491.20
2018-03-20T05:00:15.814Z,100492.97
2018-03-20T05:02:41.918Z,100488.46
2018-03-20T05:05:08.014Z,100496.64
2018-03-20T05:07:34.058Z,100499.19
2018-03-20T05:10:00.072Z,100494.89
2018-03-20T05:12:26.215Z,100488.09
2018-03-20T05:14:52.230Z,100486.83
2018-03-20T05:17:18.279Z,100484.85
2018-03-20T05:19:50.315Z,100478.39
2018-03-20T05:22:19.314Z,100473.05
2018-03-20T05:24:45.336Z,100483.63
2018-03-20T05:27:11.396Z,100480.69
2018-03-20T05:29:37.568Z,100478.55
2018-03-20T05:32:03.599Z,100481.24
2018-03-20T05:34:29.694Z,100480.02
2018-03-20T05:36:55.749Z,100481.86
2018-03-20T05:39:21.824Z,100482.27
2018-03-20T05:41:47.898Z,100477.12
2018-03-20T05:44:14.042Z,100474.60
2018-03-20T05:46:43.984Z,100487.99
2018-03-20T05:49:12.915Z,100491.97
2018-03-20T05:54:37.859Z,100486.98
2018-03-20T05:57:03.947Z,100477.13
2018-03-20T05:59:29.979Z,100487.92
2018-03-20T06:01:56.093Z,100496.58
2018-03-20T06:04:22.284Z,100494.52
2018-03-20T06:06:48.299Z,100496.65
2018-03-20T06:09:14.372Z,100497.09
2018-03-20T06:11:40.560Z,100503.19
2018-03-20T06:14:06.666Z,100499.41
2018-03-20T06:16:32.826Z,100508.06
2018-03-20T06:18:58.893Z,100513.70
2018-03-20T06:21:24.929Z,100505.55
2018-03-20T06:23:51.040Z,100517.20
2018-03-20T06:26:17.098Z,100520.30
2018-03-20T06:28:43.122Z,100510.02
2018-03-20T06:31:09.208Z,100515.24
2018-03-20T06:33:35.252Z,100518.37
2018-03-20T06:36:01.348Z,100511.10
2018-03-20T06:38:27.410Z,100514.19
2018-03-20T06:40:53.508Z,100513.80
2018-03-20T06:43:19.645Z,100513.88
2018-03-20T06:45:45.723Z,100517.29
2018-03-20T06:48:11.844Z,100509.99
2018-03-20T06:50:37.898Z,100520.44
2018-03-20T06:53:04.070Z,100526.47
2018-03-20T06:55:30.118Z,100529.53
2018-03-20T06:57:56.176Z,100531.72
2018-03-20T07:00:22.209Z,100532.14
2018-03-20T07:02:48.568Z,100542.52
2018-03-20T07:05:14.640Z,100539.11
2018-03-20T07:07:40.711Z,100543.42
2018-03-20T07:10:06.766Z,100531.89
2018-03-20T07:12:32.854Z,100537.94
2018-03-20T07:14:59.132Z,100536.64
2018-03-20T07:17:25.272Z,100538.02
2018-03-20T07:19:51.322Z,100539.34
2018-03-20T07:22:32.337Z,100546.25
2018-03-20T07:24:58.414Z,100553.98
2018-03-20T07:27:24.460Z,100549.72
2018-03-20T07:29:50.484Z,100556.19
2018-03-20T07:32:17.938Z,100556.20
2018-03-20T07:34:44.056Z,100565.69
2018-03-20T07:37:10.082Z,100562.30
2018-03-20T07:39:36.138Z,100569.23
2018-03-20T07:42:03.888Z,100566.19
2018-03-20T07:44:30.007Z,100569.67
2018-03-20T07:46:56.047Z,100581.69
2018-03-20T07:49:22.185Z,100581.34
2018-03-20T07:51:48.441Z,100588.66
2018-03-20T07:54:14.513Z,100596.42
2018-03-20T07:56:40.583Z,100591.75
2018-03-20T07:59:06.617Z,100595.19
2018-03-20T08:01:32.865Z,100601.67
2018-03-20T08:03:58.850Z,100604.24
2018-03-20T08:06:24.898Z,100600.36
2018-03-20T08:08:51.016Z,100597.78
2018-03-20T08:11:17.044Z,100609.00
2018-03-20T08:13:43.193Z,100611.61
2018-03-20T08:16:09.393Z,100609.96
2018-03-20T08:21:28.586Z,100612.52
2018-03-20T08:23:54.753Z,100611.67
2018-03-20T08:26:20.869Z,100623.33
2018-03-20T08:28:46.939Z,100635.83
2018-03-20T08:31:12.984Z,100635.88
2018-03-20T08:33:39.054Z,100635.42
2018-03-20T08:36:05.182Z,100641.51
2018-03-20T08:38:31.239Z,100644.09
2018-03-20T08:40:57.328Z,100651.41
2018-03-20T08:43:23.415Z,100649.25
2018-03-20T08:45:49.681Z,100660.93
2018-03-20T08:48:15.737Z,100658.75
2018-03-20T08:50:41.813Z,100660.42
2018-03-20T08:53:07.973Z,100670.45
2018-03-20T08:55:34.030Z,100669.99
2018-03-20T08:58:00.091Z,100678.14
2018-03-20T09:00:26.177Z,100677.77
2018-03-20T09:02:52.289Z,100685.55
2018-03-20T09:05:18.359Z,100685.98
2018-03-20T09:07:44.433Z,100694.12
2018-03-20T09:10:10.448Z,100702.33
2018-03-20T09:12:36.508Z,100702.36
2018-03-20T09:15:03.461Z,100707.50
2018-03-20T09:17:29.514Z,100717.84
2018-03-20T09:19:55.604Z,100719.52
2018-03-20T09:22:21.627Z,100723.39
2018-03-20T09:24:47.712Z,100733.75
2018-03-20T09:27:13.744Z,100735.82
2018-03-20T09:29:39.817Z,100734.97
2018-03-20T09:32:05.827Z,100740.48
2018-03-20T09:34:32.176Z,100756.44
2018-03-20T09:36:58.190Z,100762.11
2018-03-20T09:39:24.439Z,100759.09
2018-03-20T09:41:50.494Z,100766.42
2018-03-20T09:44:16.669Z,100775.88
2018-03-20T09:46:42.759Z,100779.81
2018-03-20T09:49:08.859Z,100782.35
2018-03-20T09:51:35.150Z,100793.64
2018-03-20T09:54:01.212Z,100790.67
2018-03-20T09:56:27.272Z,100796.34
2018-03-20T09:58:53.376Z,100798.55
2018-03-20T10:01:19.429Z,100808.48
2018-03-20T10:03:45.483Z,100816.72
2018-03-20T10:06:11.529Z,100811.58
2018-03-20T10:08:37.579Z,100827.09
2018-03-20T10:11:03.720Z,100828.91
2018-03-20T10:13:29.869Z,100836.63
2018-03-20T10:15:55.962Z,100829.37
2018-03-20T10:18:22.207Z,100840.64
2018-03-20T10:20:48.253Z,100841.97
2018-03-20T10:23:14.458Z,100856.73
2018-03-20T10:25:40.504Z,100855.05
2018-03-20T10:28:06.622Z,100857.28
2018-03-20T10:30:32.674Z,100865.53
2018-03-20T10:32:58.767Z,100864.78
2018-03-20T10:35:24.856Z,100873.88
2018-03-20T10:37:51.105Z,100881.27
2018-03-20T10:40:17.227Z,100881.78
2018-03-20T10:42:43.286Z,100893.92
2018-03-20T10:45:09.387Z,100897.75
2018-03-20T10:47:35.448Z,100903.44
2018-03-20T10:50:01.504Z,100914.30
2018-03-20T10:52:27.810Z,100915.77
2018-03-20T10:54:53.861Z,100925.80
2018-03-20T10:57:20.166Z,100940.12
2018-03-20T10:59:46.221Z,100935.02
2018-03-20T11:02:18.249Z,100942.38
2018-03-20T11:04:44.312Z,100946.80
2018-03-20T11:07:10.489Z,100952.86
2018-03-20T11:09:36.603Z,100950.03
2018-03-20T11:12:02.692Z,100953.48
2018-03-20T11:14:28.768Z,100966.50
2018-03-20T11:16:54.833Z,100970.86
2018-03-20T11:19:20.948Z,100967.44
2018-03-20T11:21:46.968Z,100974.34
2018-03-20T11:24:13.188Z,100973.16
2018-03-20T11:26:39.230Z,100974.09
2018-03-20T11:29:05.282Z,100980.28
2018-03-20T11:31:31.569Z,100980.31
2018-03-20T11:33:57.590Z,100973.83
2018-03-20T11:36:23.765Z,100975.05
2018-03-20T11:38:49.812Z,100981.95
2018-03-20T11:41:15.911Z,100981.78
2018-03-20T11:43:42.220Z,100983.10
2018-03-20T11:46:08.222Z,100981.18
2018-03-20T11:48:34.465Z,100991.30
2018-03-20T11:51:00.575Z,100989.70
2018-03-20T11:53:26.778Z,100995.20
2018-03-20T11:55:52.849Z,101002.53
2018-03-20T11:58:18.941Z,100998.72
2018-03-20T12:00:45.025Z,101004.22
2018-03-20T12:03:11.242Z,101014.13
2018-03-20T12:05:37.390Z,101017.25
2018-03-20T12:08:15.672Z,101010.47
2018-03-20T12:10:41.768Z,101016.00
2018-03-20T12:13:07.830Z,101027.65
2018-03-20T12:15:34.056Z,101029.32
2018-03-20T12:18:00.114Z,101030.91
2018-03-20T12:20:26.217Z,101036.80
2018-03-20T12:22:52.384Z,101044.33
2018-03-20T12:25:18.525Z,101043.45
2018-03-20T12:27:44.569Z,101047.10
2018-03-20T12:30:10.626Z,101049.50
2018-03-20T12:32:36.889Z,101053.77
2018-03-20T12:37:56.094Z,101064.48
2018-03-20T12:40:22.176Z,101057.38
2018-03-20T12:42:48.326Z,101064.88
2018-03-20T12:45:14.401Z,101066.38
2018-03-20T12:47:40.404Z,101076.56
2018-03-20T12:50:06.475Z,101081.58
2018-03-20T12:52:33.336Z,101088.03
2018-03-20T12:54:59.402Z,101083.00
2018-03-20T12:57:25.452Z,101090.59
2018-03-20T12:59:51.528Z,101093.98
2018-03-20T13:02:17.628Z,101085.69
2018-03-20T13:04:43.856Z,101091.22
2018-03-20T13:07:09.878Z,101095.95
2018-03-20T13:09:35.894Z,101094.27
2018-03-20T13:12:01.992Z,101099.13
2018-03-20T13:14:28.240Z,101109.45
2018-03-20T13:16:54.326Z,101111.78
2018-03-20T13:19:20.401Z,101109.47
2018-03-20T13:21:46.416Z,101112.55
2018-03-20T13:24:12.551Z,101114.27
2018-03-20T13:26:38.628Z,101113.49
2018-03-20T13:29:04.723Z,101118.55
2018-03-20T13:31:30.760Z,101118.92
2018-03-20T13:33:56.843Z,101126.17
2018-03-20T13:36:23.045Z,101121.48
2018-03-20T13:38:49.112Z,101121.50
2018-03-20T13:41:15.270Z,101132.16
2018-03-20T13:43:41.491Z,101135.78
2018-03-20T13:46:07.659Z,101143.77
2018-03-20T13:48:33.763Z,101135.94
2018-03-20T13:50:59.822Z,101142.52
2018-03-20T13:53:26.791Z,101152.84
2018-03-20T13:55:52.928Z,101148.41
2018-03-20T13:58:18.941Z,101161.08
2018-03-20T14:00:45.095Z,101152.39
2018-03-20T14:03:11.155Z,101148.70
2018-03-20T14:05:37.208Z,101155.61
2018-03-20T14:08:03.325Z,101157.62
2018-03-20T14:10:29.353Z,101166.01
2018-03-20T14:12:55.550Z,101164.33
2018-03-20T14:15:21.603Z,101185.73
2018-03-20T14:17:47.643Z,101178.00
2018-03-20T14:20:13.709Z,101183.50
2018-03-20T14:22:39.756Z,101182.63
2018-03-20T14:25:05.812Z,101199.90
2018-03-20T14:27:31.919Z,101193.97
2018-03-20T14:29:57.988Z,101206.69
2018-03-20T14:32:24.160Z,101194.02
2018-03-20T14:34:50.237Z,101201.56
2018-03-20T14:37:16.402Z,101202.06
2018-03-20T14:39:42.509Z,101210.34
2018-03-20T14:42:08.552Z,101211.48
2018-03-20T14:44:34.615Z,101211.80
2018-03-20T14:47:00.669Z,101225.76
2018-03-20T14:49:26.710Z,101219.35
2018-03-20T14:51:52.776Z,101224.67
2018-03-20T14:54:18.868Z,101225.02
2018-03-20T14:56:44.908Z,101221.59
2018-03-20T14:59:10.998Z,101230.57
2018-03-20T15:01:37.036Z,101237.09
2018-03-20T15:04:03.247Z,101238.73
2018-03-20T15:06:29.296Z,101245.06
2018-03-20T15:08:55.349Z,101255.45
2018-03-20T15:11:21.402Z,101249.19
2018-03-20T15:13:47.547Z,101262.76
2018-03-20T15:16:13.643Z,101269.81
2018-03-20T15:18:39.696Z,101273.29
2018-03-20T15:21:05.775Z,101274.63
2018-03-20T15:23:31.830Z,101276.34
2018-03-20T15:25:57.847Z,101286.31
2018-03-20T15:28:23.962Z,101287.42
2018-03-20T15:30:49.988Z,101292.36
2018-03-20T15:33:16.046Z,101297.52
2018-03-20T15:35:42.202Z,101296.98
2018-03-20T15:38:08.299Z,101294.66
2018-03-20T15:40:34.388Z,101300.38
2018-03-20T15:43:00.503Z,101306.05
2018-03-20T15:45:26.709Z,101309.86
2018-03-20T15:47:52.757Z,101316.44
2018-03-20T15:50:18.825Z,101315.96
2018-03-20T15:52:44.848Z,101316.20
2018-03-20T15:55:11.062Z,101318.73
2018-03-20T15:57:37.118Z,101322.70
2018-03-20T16:00:03.170Z,101329.76
2018-03-20T16:02:29.267Z,101333.46
2018-03-20T16:04:55.506Z,101334.75
2018-03-20T16:07:21.588Z,101339.58
2018-03-20T16:09:47.673Z,101341.79
2018-03-20T16:12:13.755Z,101349.20
2018-03-20T16:14:39.857Z,101360.53
2018-03-20T16:17:05.896Z,101363.22
2018-03-20T16:19:32.132Z,101375.35
2018-03-20T16:21:58.194Z,101374.58
2018-03-20T16:24:24.247Z,101377.25
2018-03-20T16:26:50.427Z,101389.44
2018-03-20T16:29:16.505Z,101389.89
2018-03-20T16:31:42.586Z,101392.53
2018-03-20T16:34:08.759Z,101401.21
2018-03-20T16:36:34.825Z,101410.75
2018-03-20T16:39:01.091Z,101417.25
2018-03-20T16:41:27.214Z,101421.11
2018-03-20T16:43:53.250Z,101431.02
2018-03-20T16:46:19.322Z,101427.09
2018-03-20T16:48:45.350Z,101433.09
2018-03-20T16:51:11.487Z,101429.56
2018-03-20T16:53:37.563Z,101440.31
2018-03-20T16:56:03.617Z,101437.98
2018-03-20T16:58:29.785Z,101453.90
2018-03-20T17:00:55.849Z,101452.12
2018-03-20T17:03:21.910Z,101452.15
2018-03-20T17:05:48.183Z,101455.92
2018-03-20T17:08:14.474Z,101466.63
2018-03-20T17:10:41.142Z,101470.53
2018-03-20T17:13:07.232Z,101474.76
2018-03-20T17:15:33.351Z,101481.16
2018-03-20T17:17:59.796Z,101488.91
2018-03-20T17:20:25.914Z,101500.97
2018-03-20T17:22:52.017Z,101506.95
2018-03-20T17:25:18.195Z,101509.47
2018-03-20T17:27:44.330Z,101513.23
2018-03-20T17:30:10.430Z,101515.23
2018-03-20T17:32:36.507Z,101526.38
2018-03-20T17:35:02.847Z,101527.95
2018-03-20T17:37:28.976Z,101527.95
2018-03-20T17:39:55.353Z,101539.91
2018-03-20T17:42:21.432Z,101546.31
2018-03-20T17:44:47.850Z,101557.49
2018-03-20T17:47:13.890Z,101551.38
2018-03-20T17:49:40.118Z,101555.15
2018-03-20T17:52:06.173Z,101565.84
2018-03-20T17:54:32.422Z,101574.24
2018-03-20T17:56:58.486Z,101577.22
2018-03-20T17:59:24.575Z,101586.17
2018-03-20T18:01:50.722Z,101592.20
2018-03-20T18:04:16.964Z,101593.00
2018-03-20T18:06:43.096Z,101600.67
2018-03-20T18:09:09.314Z,101605.34
2018-03-20T18:11:35.430Z,101612.99
2018-03-20T18:14:01.843Z,101623.25
2018-03-20T18:16:27.861Z,101621.03
2018-03-20T18:18:53.979Z,101628.27
2018-03-20T18:21:20.071Z,101634.63
2018-03-20T18:23:46.214Z,101631.94
2018-03-20T18:26:12.305Z,101640.08
2018-03-20T18:28:38.436Z,101637.93
2018-03-20T18:31:04.781Z,101649.77
2018-03-20T18:33:30.867Z,101652.28
2018-03-20T18:35:57.573Z,101660.45
2018-03-20T18:38:23.669Z,101658.23
2018-03-20T18:43:42.989Z,101670.05
2018-03-20T18:46:09.081Z,101676.41
2018-03-20T18:48:35.176Z,101686.06
2018-03-20T18:51:01.354Z,101690.59
2018-03-20T18:53:27.672Z,101693.33
2018-03-20T18:55:53.742Z,101695.06
2018-03-20T18:58:20.040Z,101696.27
2018-03-20T19:00:46.167Z,101698.67
2018-03-20T19:03:12.275Z,101704.34
2018-03-20T19:05:38.457Z,101707.15
2018-03-20T19:08:04.503Z,101705.86
2018-03-20T19:10:30.758Z,101714.47
2018-03-20T19:12:56.854Z,101716.11
2018-03-20T19:15:23.933Z,101725.48
2018-03-20T19:17:50.016Z,101728.29
2018-03-20T19:20:16.105Z,101730.03
2018-03-20T19:22:42.408Z,101729.94
2018-03-20T19:25:09.015Z,101736.36
2018-03-20T19:27:49.992Z,101741.52
2018-03-20T19:30:16.011Z,101744.38
2018-03-20T19:32:42.144Z,101751.40
2018-03-20T19:35:09.016Z,101747.92
2018-03-20T19:37:36.080Z,101755.44
2018-03-20T19:40:02.265Z,101756.39
2018-03-20T19:42:28.361Z,101762.55
2018-03-20T19:44:54.681Z,101763.24
2018-03-20T19:47:21.558Z,101768.55
2018-03-20T19:49:47.960Z,101774.50
2018-03-20T19:52:14.094Z,101777.42
2018-03-20T19:54:40.793Z,101780.46
2018-03-20T19:57:07.058Z,101779.66
2018-03-20T19:59:33.189Z,101785.34
2018-03-20T20:01:59.445Z,101794.22
2018-03-20T20:04:25.552Z,101793.22
2018-03-20T20:06:51.823Z,101801.20
2018-03-20T20:09:18.010Z,101802.61
2018-03-20T20:11:44.218Z,101806.88
2018-03-20T20:14:10.643Z,101808.39
2018-03-20T20:16:36.722Z,101820.50
2018-03-20T20:19:06.904Z,101814.15
2018-03-20T20:21:33.270Z,101819.59
2018-03-20T20:23:59.631Z,101823.90
2018-03-20T20:26:25.743Z,101828.42
2018-03-20T20:28:52.110Z,101840.34
2018-03-20T20:31:19.327Z,101843.78
2018-03-20T20:33:45.431Z,101847.53
2018-03-20T20:36:11.591Z,101846.95
2018-03-20T20:38:37.777Z,101848.88
2018-03-20T20:41:04.930Z,101852.25
2018-03-20T20:43:31.079Z,101858.05
2018-03-20T20:45:57.399Z,101864.43
2018-03-20T20:48:23.531Z,101860.81
2018-03-20T20:50:49.821Z,101862.03
2018-03-20T20:53:16.114Z,101866.42
2018-03-20T20:55:42.251Z,101870.23
2018-03-20T20:58:08.320Z,101873.12
2018-03-20T21:00:34.427Z,101876.29
2018-03-20T21:03:00.459Z,101866.77
2018-03-20T21:05:26.565Z,101866.69
2018-03-20T21:07:52.870Z,101865.26
2018-03-20T21:10:18.969Z,101871.96
2018-03-20T21:12:45.123Z,101879.55
2018-03-20T21:15:11.331Z,101883.34
2018-03-20T21:17:37.460Z,101883.63
2018-03-20T21:20:03.611Z,101882.58
2018-03-20T21:22:30.162Z,101885.20
2018-03-20T21:24:56.228Z,101882.97
2018-03-20T21:27:22.509Z,101888.05
2018-03-20T21:29:49.210Z,101886.05
2018-03-20T21:32:15.344Z,101893.05
2018-03-20T21:34:41.713Z,101898.14
2018-03-20T21:37:07.863Z,101896.27
2018-03-20T21:39:34.091Z,101894.52
2018-03-20T21:42:00.231Z,101902.23
2018-03-20T21:44:26.326Z,101903.40
2018-03-20T21:46:52.432Z,101902.86
2018-03-20T21:49:18.517Z,101905.34
2018-03-20T21:51:44.628Z,101898.74
2018-03-20T21:54:10.685Z,101904.34
2018-03-20T21:56:36.965Z,101897.69
2018-03-20T21:59:03.000Z,101902.51
2018-03-20T22:01:29.069Z,101911.98
2018-03-20T22:03:55.134Z,101912.03
2018-03-20T22:06:21.201Z,101911.48
2018-03-20T22:08:47.274Z,101913.56
2018-03-20T22:11:13.568Z,101917.59
2018-03-20T22:13:39.680Z,101918.66
2018-03-20T22:16:05.721Z,101920.91
2018-03-20T22:18:31.814Z,101920.91
2018-03-20T22:20:57.865Z,101921.86
2018-03-20T22:23:24.019Z,101925.19
2018-03-20T22:25:50.216Z,101924.48
2018-03-20T22:28:16.265Z,101927.34
2018-03-20T22:30:42.417Z,101922.91
2018-03-20T22:33:08.443Z,101925.63
2018-03-20T22:35:34.583Z,101926.86
2018-03-20T22:38:00.665Z,101929.35
2018-03-20T22:40:27.793Z,101923.55
2018-03-20T22:42:53.854Z,101924.64
2018-03-20T22:45:20.050Z,101932.36
2018-03-20T22:47:46.128Z,101939.49
2018-03-20T22:50:12.171Z,101941.31
2018-03-20T22:52:38.209Z,101942.95
2018-03-20T22:55:04.281Z,101940.71
2018-03-20T22:57:30.841Z,101944.70
2018-03-20T22:59:56.900Z,101945.45
2018-03-20T23:02:22.922Z,101946.65
2018-03-20T23:07:42.326Z,101944.16
2018-03-20T23:10:08.396Z,101946.05
2018-03-20T23:12:34.517Z,101953.24
2018-03-20T23:15:00.572Z,101950.30
2018-03-20T23:17:26.645Z,101953.38
2018-03-20T23:19:52.689Z,101956.70
2018-03-20T23:22:18.727Z,101965.61
2018-03-20T23:24:44.760Z,101950.03
2018-03-20T23:27:10.845Z,101960.84
2018-03-20T23:29:36.981Z,101957.83
2018-03-20T23:32:03.073Z,101957.83
2018-03-20T23:34:29.300Z,101958.45
2018-03-20T23:36:55.539Z,101960.31
2018-03-20T23:39:21.662Z,101966.66
2018-03-20T23:41:47.725Z,101963.33
2018-03-20T23:44:13.794Z,101964.91
2018-03-20T23:46:40.071Z,101965.89
2018-03-20T23:49:06.111Z,101970.81
2018-03-20T23:51:32.286Z,101968.69
2018-03-20T23:53:58.309Z,101975.94
2018-03-20T23:56:24.396Z,101986.61
2018-03-20T23:58:50.466Z,101975.09
